createdAt,value
2019-06-26T00:00:10.328Z,100467.37
2019-06-26T00:02:38.614Z,100464.70
2019-06-26T00:05:08.100Z,100460.77
2019-06-26T00:07:36.878Z,100462.06
2019-06-26T00:10:06.773Z,100454.13
2019-06-26T00:12:35.478Z,100459.80
2019-06-26T00:15:07.647Z,100458.93
2019-06-26T00:17:36.460Z,100457.61
2019-06-26T00:20:06.136Z,100450.60
2019-06-26T00:22:34.823Z,100451.50
2019-06-26T00:25:04.601Z,100456.77
2019-06-26T00:27:33.527Z,100450.28
2019-06-26T00:30:02.723Z,100455.52
2019-06-26T00:32:31.509Z,100453.38
2019-06-26T00:35:00.292Z,100455.13
2019-06-26T00:37:28.994Z,100456.48
2019-06-26T00:39:57.766Z,100460.45
2019-06-26T00:42:26.563Z,100456.95
2019-06-26T00:44:55.337Z,100460.47
2019-06-26T00:47:24.625Z,100458.77
2019-06-26T00:49:53.422Z,100461.42
2019-06-26T00:52:22.252Z,100465.35
2019-06-26T00:54:51.117Z,100462.75
2019-06-26T00:57:19.879Z,100460.54
2019-06-26T00:59:48.684Z,100460.52
2019-06-26T01:02:17.457Z,100457.47
2019-06-26T01:04:50.560Z,100453.98
2019-06-26T01:07:19.334Z,100453.98
2019-06-26T01:09:48.114Z,100453.98
2019-06-26T01:12:16.910Z,100448.75
2019-06-26T01:14:45.757Z,100450.05
2019-06-26T01:17:14.482Z,100447.41
2019-06-26T01:19:43.357Z,100442.09
2019-06-26T01:22:12.251Z,100442.05
2019-06-26T01:24:41.040Z,100442.03
2019-06-26T01:27:10.220Z,100434.17
2019-06-26T01:29:39.017Z,100435.08
2019-06-26T01:32:07.809Z,100440.33
2019-06-26T01:34:36.625Z,100435.10
2019-06-26T01:37:05.265Z,100436.88
2019-06-26T01:39:33.959Z,100438.64
2019-06-26T01:42:02.737Z,100436.95
2019-06-26T01:44:31.529Z,100436.09
2019-06-26T01:47:00.422Z,100431.77
2019-06-26T01:49:30.324Z,100428.29
2019-06-26T01:51:59.131Z,100428.33
2019-06-26T01:54:28.620Z,100425.27
2019-06-26T01:56:57.412Z,100428.32
2019-06-26T01:59:26.200Z,100425.31
2019-06-26T02:01:55.009Z,100426.24
2019-06-26T02:04:23.767Z,100421.91
2019-06-26T02:06:52.565Z,100414.05
2019-06-26T02:09:21.338Z,100421.08
2019-06-26T02:11:50.125Z,100414.52
2019-06-26T02:14:30.580Z,100417.14
2019-06-26T02:16:49.348Z,100418.94
2019-06-26T02:19:19.661Z,100416.34
2019-06-26T02:21:48.347Z,100423.36
2019-06-26T02:24:17.138Z,100417.25
2019-06-26T02:26:45.918Z,100415.95
2019-06-26T02:29:14.802Z,100416.37
2019-06-26T02:31:43.513Z,100420.31
2019-06-26T02:34:12.281Z,100417.70
2019-06-26T02:36:41.078Z,100415.52
2019-06-26T02:39:10.162Z,100413.73
2019-06-26T02:41:38.959Z,100415.95
2019-06-26T02:44:07.744Z,100414.62
2019-06-26T02:46:36.526Z,100421.18
2019-06-26T02:49:05.301Z,100418.58
2019-06-26T02:51:34.273Z,100419.42
2019-06-26T02:54:02.978Z,100415.50
2019-06-26T02:56:31.760Z,100420.31
2019-06-26T02:59:00.569Z,100416.37
2019-06-26T03:01:29.616Z,100414.17
2019-06-26T03:03:58.322Z,100411.11
2019-06-26T03:06:27.218Z,100412.39
2019-06-26T03:08:55.994Z,100405.39
2019-06-26T03:11:24.787Z,100405.77
2019-06-26T03:13:53.581Z,100405.35
2019-06-26T03:16:22.350Z,100401.78
2019-06-26T03:18:51.039Z,100396.45
2019-06-26T03:21:19.835Z,100395.03
2019-06-26T03:23:48.569Z,100400.61
2019-06-26T03:26:17.293Z,100394.67
2019-06-26T03:28:46.083Z,100391.64
2019-06-26T03:31:14.880Z,100383.05
2019-06-26T03:33:43.670Z,100389.17
2019-06-26T03:36:12.446Z,100383.91
2019-06-26T03:38:41.638Z,100379.19
2019-06-26T03:41:10.332Z,100376.63
2019-06-26T03:43:39.124Z,100378.51
2019-06-26T03:46:07.952Z,100370.52
2019-06-26T03:48:36.787Z,100361.55
2019-06-26T03:51:05.978Z,100369.42
2019-06-26T03:53:34.728Z,100357.21
2019-06-26T03:56:03.466Z,100357.34
2019-06-26T03:58:34.461Z,100359.77
2019-06-26T04:01:05.431Z,100354.22
2019-06-26T04:03:36.251Z,100356.44
2019-06-26T04:06:06.241Z,100358.30
2019-06-26T04:08:35.615Z,100354.05
2019-06-26T04:11:04.560Z,100353.34
2019-06-26T04:13:33.680Z,100357.75
2019-06-26T04:16:04.104Z,100355.81
2019-06-26T04:18:33.781Z,100350.41
2019-06-26T04:21:05.078Z,100349.48
2019-06-26T04:23:34.657Z,100346.33
2019-06-26T04:26:05.224Z,100347.52
2019-06-26T04:28:34.798Z,100340.98
2019-06-26T04:31:06.789Z,100321.63
2019-06-26T04:33:36.255Z,100321.63
2019-06-26T04:36:07.144Z,100342.22
2019-06-26T04:38:36.218Z,100341.33
2019-06-26T04:41:07.416Z,100333.26
2019-06-26T04:43:36.963Z,100332.80
2019-06-26T04:46:07.454Z,100335.34
2019-06-26T04:48:36.902Z,100339.88
2019-06-26T04:51:07.807Z,100341.05
2019-06-26T04:53:37.508Z,100340.05
2019-06-26T04:56:09.665Z,100334.05
2019-06-26T04:58:39.276Z,100337.16
2019-06-26T05:01:09.813Z,100331.73
2019-06-26T05:03:40.452Z,100329.26
2019-06-26T05:06:13.422Z,100333.66
2019-06-26T05:08:43.917Z,100334.18
2019-06-26T05:11:14.700Z,100334.05
2019-06-26T05:13:43.863Z,100335.05
2019-06-26T05:16:20.023Z,100332.06
2019-06-26T05:18:48.363Z,100328.87
2019-06-26T05:21:17.627Z,100329.56
2019-06-26T05:23:48.622Z,100330.83
2019-06-26T05:26:18.089Z,100327.70
2019-06-26T05:28:49.403Z,100323.38
2019-06-26T05:31:18.543Z,100317.77
2019-06-26T05:33:49.012Z,100319.83
2019-06-26T05:36:17.905Z,100321.22
2019-06-26T05:38:54.747Z,100318.18
2019-06-26T05:41:27.434Z,100319.94
2019-06-26T05:43:58.693Z,100315.08
2019-06-26T05:46:31.519Z,100319.22
2019-06-26T05:49:09.166Z,100313.91
2019-06-26T05:51:38.187Z,100313.53
2019-06-26T05:54:09.298Z,100314.77
2019-06-26T05:56:38.094Z,100314.20
2019-06-26T05:59:07.294Z,100313.91
2019-06-26T06:01:36.068Z,100315.77
2019-06-26T06:04:04.843Z,100312.86
2019-06-26T06:06:41.852Z,100308.25
2019-06-26T06:09:05.700Z,100309.31
2019-06-26T06:11:34.490Z,100303.49
2019-06-26T06:14:03.532Z,100302.37
2019-06-26T06:16:46.344Z,100303.17
2019-06-26T06:19:03.611Z,100307.32
2019-06-26T06:21:32.225Z,100305.30
2019-06-26T06:24:02.108Z,100301.81
2019-06-26T06:26:30.880Z,100301.11
2019-06-26T06:28:59.676Z,100300.00
2019-06-26T06:31:28.361Z,100295.22
2019-06-26T06:33:57.257Z,100292.10
2019-06-26T06:36:25.924Z,100291.75
2019-06-26T06:38:54.721Z,100289.31
2019-06-26T06:41:23.530Z,100290.50
2019-06-26T06:43:52.704Z,100287.13
2019-06-26T06:46:23.286Z,100266.73
2019-06-26T06:48:54.331Z,100278.25
2019-06-26T06:51:23.152Z,100274.79
2019-06-26T06:53:51.936Z,100281.47
2019-06-26T06:56:20.609Z,100269.06
2019-06-26T06:58:49.410Z,100268.02
2019-06-26T07:01:18.203Z,100266.19
2019-06-26T07:03:46.988Z,100263.01
2019-06-26T07:06:15.945Z,100260.97
2019-06-26T07:08:44.770Z,100257.91
2019-06-26T07:11:13.558Z,100258.86
2019-06-26T07:13:42.230Z,100257.92
2019-06-26T07:16:11.019Z,100260.41
2019-06-26T07:18:39.909Z,100258.66
2019-06-26T07:21:08.695Z,100260.16
2019-06-26T07:23:37.507Z,100259.81
2019-06-26T07:26:06.131Z,100257.70
2019-06-26T07:28:36.395Z,100257.63
2019-06-26T07:31:06.657Z,100252.58
2019-06-26T07:33:35.394Z,100256.52
2019-06-26T07:36:04.180Z,100254.30
2019-06-26T07:38:34.097Z,100249.27
2019-06-26T07:41:02.904Z,100250.80
2019-06-26T07:43:31.881Z,100251.47
2019-06-26T07:46:00.539Z,100242.58
2019-06-26T07:48:29.543Z,100236.80
2019-06-26T07:50:58.235Z,100247.83
2019-06-26T07:53:27.337Z,100246.92
2019-06-26T07:55:56.140Z,100240.91
2019-06-26T07:58:24.902Z,100248.92
2019-06-26T08:00:53.612Z,100237.95
2019-06-26T08:03:22.370Z,100240.91
2019-06-26T08:05:51.058Z,100240.30
2019-06-26T08:08:20.352Z,100236.48
2019-06-26T08:10:49.044Z,100234.56
2019-06-26T08:13:17.722Z,100237.66
2019-06-26T08:15:46.506Z,100233.09
2019-06-26T08:18:15.503Z,100220.80
2019-06-26T08:20:55.433Z,100224.45
2019-06-26T08:23:17.167Z,100226.52
2019-06-26T08:25:45.829Z,100223.43
2019-06-26T08:28:14.536Z,100226.44
2019-06-26T08:30:43.894Z,100226.65
2019-06-26T08:33:12.726Z,100221.06
2019-06-26T08:35:41.399Z,100222.35
2019-06-26T08:38:15.146Z,100224.64
2019-06-26T08:40:40.710Z,100222.76
2019-06-26T08:43:09.411Z,100220.08
2019-06-26T08:45:38.754Z,100212.53
2019-06-26T08:48:22.758Z,100208.59
2019-06-26T08:50:38.445Z,100212.56
2019-06-26T08:53:07.105Z,100209.89
2019-06-26T08:55:36.913Z,100201.94
2019-06-26T08:58:06.307Z,100209.41
2019-06-26T09:00:35.139Z,100205.97
2019-06-26T09:03:03.859Z,100204.53
2019-06-26T09:05:46.904Z,100209.56
2019-06-26T09:08:03.078Z,100201.86
2019-06-26T09:10:32.089Z,100202.73
2019-06-26T09:13:00.884Z,100202.93
2019-06-26T09:15:30.392Z,100195.60
2019-06-26T09:17:59.180Z,100198.63
2019-06-26T09:20:34.434Z,100187.99
2019-06-26T09:23:05.164Z,100192.27
2019-06-26T09:25:33.928Z,100196.08
2019-06-26T09:28:02.846Z,100177.46
2019-06-26T09:30:34.487Z,100188.00
2019-06-26T09:33:06.449Z,100181.30
2019-06-26T09:35:35.969Z,100175.69
2019-06-26T09:38:05.448Z,100169.24
2019-06-26T09:40:34.229Z,100175.34
2019-06-26T09:43:03.012Z,100171.83
2019-06-26T09:45:31.706Z,100169.73
2019-06-26T09:48:03.753Z,100159.53
2019-06-26T09:50:32.550Z,100160.45
2019-06-26T09:53:05.523Z,100158.06
2019-06-26T09:55:34.742Z,100149.48
2019-06-26T09:58:03.524Z,100161.06
2019-06-26T10:00:33.413Z,100149.97
2019-06-26T10:03:03.576Z,100147.58
2019-06-26T10:05:32.326Z,100142.08
2019-06-26T10:08:02.894Z,100138.02
2019-06-26T10:10:33.360Z,100142.52
2019-06-26T10:13:02.160Z,100127.93
2019-06-26T10:15:31.294Z,100125.01
2019-06-26T10:18:00.055Z,100122.66
2019-06-26T10:20:29.302Z,100126.09
2019-06-26T10:23:00.803Z,100116.08
2019-06-26T10:25:29.931Z,100113.08
2019-06-26T10:28:00.582Z,100110.14
2019-06-26T10:30:33.277Z,100107.56
2019-06-26T10:33:02.316Z,100104.42
2019-06-26T10:35:31.185Z,100104.89
2019-06-26T10:38:00.237Z,100100.67
2019-06-26T10:40:29.331Z,100101.16
2019-06-26T10:42:58.157Z,100094.13
2019-06-26T10:45:29.307Z,100093.81
2019-06-26T10:47:59.952Z,100093.95
2019-06-26T10:50:30.847Z,100088.02
2019-06-26T10:52:59.777Z,100089.91
2019-06-26T10:55:30.631Z,100085.11
2019-06-26T10:57:59.854Z,100077.79
2019-06-26T11:00:29.698Z,100073.62
2019-06-26T11:03:02.080Z,100071.91
2019-06-26T11:05:32.737Z,100068.31
2019-06-26T11:08:03.997Z,100066.19
2019-06-26T11:10:33.052Z,100057.26
2019-06-26T11:13:02.311Z,100061.47
2019-06-26T11:15:33.451Z,100056.20
2019-06-26T11:18:02.269Z,100057.84
2019-06-26T11:20:31.748Z,100058.63
2019-06-26T11:23:03.258Z,100046.95
2019-06-26T11:25:32.107Z,100048.34
2019-06-26T11:28:02.942Z,100048.88
2019-06-26T11:30:31.950Z,100041.37
2019-06-26T11:33:03.127Z,100042.43
2019-06-26T11:35:32.191Z,100040.69
2019-06-26T11:38:04.778Z,100031.53
2019-06-26T11:40:34.003Z,100035.42
2019-06-26T11:43:04.631Z,100025.16
2019-06-26T11:45:33.755Z,100016.17
2019-06-26T11:48:04.852Z,100013.98
2019-06-26T11:50:34.411Z,100013.20
2019-06-26T11:53:05.569Z,100007.91
2019-06-26T11:55:34.526Z,100003.75
2019-06-26T11:58:03.312Z,100006.66
2019-06-26T12:00:32.099Z,99997.53
2019-06-26T12:03:00.904Z,99996.31
2019-06-26T12:05:29.689Z,99985.01
2019-06-26T12:08:01.124Z,99989.56
2019-06-26T12:10:31.805Z,99985.97
2019-06-26T12:13:04.052Z,99986.95
2019-06-26T12:15:33.038Z,99989.58
2019-06-26T12:18:04.284Z,99975.24
2019-06-26T12:20:35.160Z,99972.72
2019-06-26T12:23:04.792Z,99973.40
2019-06-26T12:25:35.672Z,99971.27
2019-06-26T12:28:05.110Z,99965.60
2019-06-26T12:30:36.697Z,99965.60
2019-06-26T12:33:07.703Z,99962.42
2019-06-26T12:35:36.523Z,99957.61
2019-06-26T12:38:05.302Z,99948.20
2019-06-26T12:40:34.087Z,99947.66
2019-06-26T12:43:02.840Z,99945.34
2019-06-26T12:45:33.442Z,99943.80
2019-06-26T12:48:02.292Z,99944.22
2019-06-26T12:50:35.978Z,99942.19
2019-06-26T12:53:01.916Z,99927.67
2019-06-26T12:55:32.977Z,99931.00
2019-06-26T12:58:12.601Z,99931.84
2019-06-26T13:00:31.990Z,99931.71
2019-06-26T13:03:01.267Z,99935.23
2019-06-26T13:05:30.039Z,99932.00
2019-06-26T13:07:58.820Z,99930.27
2019-06-26T13:10:27.888Z,99923.86
2019-06-26T13:12:56.613Z,99924.79
2019-06-26T13:15:32.439Z,99919.13
2019-06-26T13:18:11.352Z,99919.00
2019-06-26T13:20:52.369Z,99917.44
2019-06-26T13:23:10.381Z,99907.30
2019-06-26T13:25:39.175Z,99908.83
2019-06-26T13:28:07.971Z,99904.73
2019-06-26T13:30:41.165Z,99903.69
2019-06-26T13:33:09.830Z,99904.22
2019-06-26T13:35:38.751Z,99895.14
2019-06-26T13:38:07.413Z,99891.59
2019-06-26T13:40:36.045Z,99888.38
2019-06-26T13:43:04.685Z,99891.18
2019-06-26T13:45:33.456Z,99889.63
2019-06-26T13:48:02.124Z,99891.34
2019-06-26T13:50:30.934Z,99886.64
2019-06-26T13:52:59.759Z,99883.81
2019-06-26T13:55:28.606Z,99890.84
2019-06-26T13:57:57.394Z,99884.27
2019-06-26T14:00:35.056Z,99872.66
2019-06-26T14:03:04.311Z,99866.80
2019-06-26T14:05:33.236Z,99866.17
2019-06-26T14:08:02.062Z,99864.78
2019-06-26T14:10:30.983Z,99865.12
2019-06-26T14:13:01.613Z,99860.33
2019-06-26T14:15:32.235Z,99856.19
2019-06-26T14:18:02.730Z,99849.77
2019-06-26T14:20:31.872Z,99850.36
2019-06-26T14:23:02.408Z,99852.53
2019-06-26T14:25:31.634Z,99842.46
2019-06-26T14:28:02.549Z,99846.59
2019-06-26T14:30:33.385Z,99844.08
2019-06-26T14:33:02.268Z,99838.22
2019-06-26T14:35:31.936Z,99828.25
2019-06-26T14:38:01.363Z,99830.33
2019-06-26T14:40:30.211Z,99828.06
2019-06-26T14:42:58.892Z,99826.16
2019-06-26T14:45:29.757Z,99824.73
2019-06-26T14:47:58.875Z,99820.10
2019-06-26T14:50:31.249Z,99816.27
2019-06-26T14:53:00.483Z,99823.81
2019-06-26T14:55:37.594Z,99823.72
2019-06-26T14:58:06.545Z,99813.02
2019-06-26T15:00:37.299Z,99818.94
2019-06-26T15:03:06.317Z,99809.84
2019-06-26T15:05:35.441Z,99797.44
2019-06-26T15:08:09.144Z,99806.52
2019-06-26T15:10:39.363Z,99808.80
2019-06-26T15:13:08.880Z,99799.62
2019-06-26T15:15:37.715Z,99790.25
2019-06-26T15:18:06.742Z,99789.42
2019-06-26T15:20:35.683Z,99790.41
2019-06-26T15:23:04.946Z,99790.64
2019-06-26T15:25:34.318Z,99787.02
2019-06-26T15:28:09.421Z,99786.66
2019-06-26T15:30:38.097Z,99779.58
2019-06-26T15:33:07.435Z,99778.38
2019-06-26T15:35:38.311Z,99775.22
2019-06-26T15:38:08.580Z,99777.31
2019-06-26T15:40:37.419Z,99762.15
2019-06-26T15:43:06.341Z,99762.91
2019-06-26T15:45:35.267Z,99752.98
2019-06-26T15:48:04.999Z,99750.00
2019-06-26T15:50:37.681Z,99745.03
2019-06-26T15:53:06.702Z,99746.36
2019-06-26T15:55:35.602Z,99740.75
2019-06-26T15:58:04.723Z,99734.42
2019-06-26T16:00:34.816Z,99742.45
2019-06-26T16:03:06.453Z,99737.02
2019-06-26T16:05:38.797Z,99730.80
2019-06-26T16:08:11.331Z,99725.80
2019-06-26T16:10:40.508Z,99718.67
2019-06-26T16:13:12.715Z,99719.25
2019-06-26T16:15:42.319Z,99718.77
2019-06-26T16:18:25.285Z,99716.17
2019-06-26T16:20:57.612Z,99707.94
2019-06-26T16:23:26.808Z,99712.11
2019-06-26T16:25:55.789Z,99705.76
2019-06-26T16:28:24.748Z,99704.94
2019-06-26T16:30:58.451Z,99710.08
2019-06-26T16:33:27.542Z,99708.23
2019-06-26T16:36:01.088Z,99701.53
2019-06-26T16:38:33.571Z,99699.59
2019-06-26T16:41:05.389Z,99696.30
2019-06-26T16:43:34.390Z,99692.47
2019-06-26T16:46:06.234Z,99691.16
2019-06-26T16:48:37.388Z,99695.56
2019-06-26T16:51:08.388Z,99688.52
2019-06-26T16:53:37.534Z,99685.17
2019-06-26T16:56:07.498Z,99690.05
2019-06-26T16:58:38.546Z,99687.55
2019-06-26T17:01:11.528Z,99684.03
2019-06-26T17:03:41.165Z,99674.69
2019-06-26T17:06:13.667Z,99680.36
2019-06-26T17:08:42.643Z,99671.54
2019-06-26T17:11:13.389Z,99664.58
2019-06-26T17:13:42.777Z,99661.94
2019-06-26T17:16:17.026Z,99659.47
2019-06-26T17:18:46.062Z,99659.02
2019-06-26T17:21:14.827Z,99657.00
2019-06-26T17:23:43.781Z,99662.17
2019-06-26T17:26:12.516Z,99630.17
2019-06-26T17:28:44.081Z,99650.61
2019-06-26T17:31:16.224Z,99654.75
2019-06-26T17:33:45.544Z,99648.62
2019-06-26T17:36:14.431Z,99644.52
2019-06-26T17:38:43.750Z,99644.52
2019-06-26T17:41:12.719Z,99645.02
2019-06-26T17:43:42.015Z,99646.39
2019-06-26T17:46:10.863Z,99652.13
2019-06-26T17:48:39.512Z,99652.13
2019-06-26T17:51:08.546Z,99651.56
2019-06-26T17:53:37.328Z,99635.52
2019-06-26T17:56:07.661Z,99635.52
2019-06-26T17:58:36.435Z,99652.77
2019-06-26T18:01:05.613Z,99651.44
2019-06-26T18:03:38.330Z,99653.30
2019-06-26T18:06:07.217Z,99624.95
2019-06-26T18:08:35.978Z,99652.24
2019-06-26T18:11:04.790Z,99641.52
2019-06-26T18:13:34.126Z,99646.30
2019-06-26T18:16:03.097Z,99649.77
2019-06-26T18:18:36.106Z,99644.45
2019-06-26T18:21:04.862Z,99644.01
2019-06-26T18:23:38.365Z,99643.67
2019-06-26T18:26:12.958Z,99641.11
2019-06-26T18:28:36.514Z,99635.44
2019-06-26T18:31:07.420Z,99635.44
2019-06-26T18:33:36.270Z,99637.96
2019-06-26T18:36:05.135Z,99639.86
2019-06-26T18:38:34.191Z,99636.31
2019-06-26T18:41:04.584Z,99629.58
2019-06-26T18:43:33.456Z,99632.31
2019-06-26T18:46:02.655Z,99633.92
2019-06-26T18:48:33.642Z,99630.33
2019-06-26T18:51:05.853Z,99623.05
2019-06-26T18:53:53.175Z,99629.13
2019-06-26T18:56:14.270Z,99622.34
2019-06-26T18:58:46.221Z,99620.89
2019-06-26T19:01:17.112Z,99619.66
2019-06-26T19:03:46.218Z,99618.20
2019-06-26T19:06:15.056Z,99624.87
2019-06-26T19:08:44.422Z,99618.63
2019-06-26T19:11:13.286Z,99618.09
2019-06-26T19:13:43.695Z,99614.89
2019-06-26T19:16:12.654Z,99614.67
2019-06-26T19:18:41.600Z,99613.04
2019-06-26T19:21:10.318Z,99609.72
2019-06-26T19:23:39.222Z,99607.06
2019-06-26T19:26:10.233Z,99607.53
2019-06-26T19:28:39.555Z,99609.73
2019-06-26T19:31:10.387Z,99604.02
2019-06-26T19:33:39.295Z,99603.47
2019-06-26T19:36:10.296Z,99598.17
2019-06-26T19:38:40.784Z,99599.94
2019-06-26T19:41:09.563Z,99597.28
2019-06-26T19:43:43.275Z,99600.21
2019-06-26T19:46:12.251Z,99593.28
2019-06-26T19:48:42.797Z,99592.25
2019-06-26T19:51:11.711Z,99586.86
2019-06-26T19:53:42.523Z,99589.95
2019-06-26T19:56:11.470Z,99585.95
2019-06-26T19:58:43.009Z,99583.41
2019-06-26T20:01:11.934Z,99584.20
2019-06-26T20:03:40.923Z,99577.91
2019-06-26T20:06:09.680Z,99582.31
2019-06-26T20:08:51.872Z,99584.91
2019-06-26T20:11:08.984Z,99581.13
2019-06-26T20:13:37.763Z,99581.68
2019-06-26T20:16:06.556Z,99576.38
2019-06-26T20:18:35.335Z,99576.22
2019-06-26T20:21:04.148Z,99570.86
2019-06-26T20:23:32.921Z,99567.56
2019-06-26T20:26:01.798Z,99571.55
2019-06-26T20:28:30.584Z,99564.12
2019-06-26T20:30:59.392Z,99569.53
2019-06-26T20:33:28.172Z,99561.42
2019-06-26T20:35:57.046Z,99550.71
2019-06-26T20:38:25.838Z,99545.91
2019-06-26T20:40:54.625Z,99548.28
2019-06-26T20:43:23.410Z,99543.04
2019-06-26T20:45:52.187Z,99543.41
2019-06-26T20:48:21.178Z,99537.36
2019-06-26T20:50:50.279Z,99532.59
2019-06-26T20:53:19.367Z,99527.87
2019-06-26T20:55:48.156Z,99525.80
2019-06-26T20:58:16.943Z,99531.09
2019-06-26T21:00:45.736Z,99527.28
2019-06-26T21:03:14.532Z,99520.17
2019-06-26T21:05:43.243Z,99525.22
2019-06-26T21:08:12.041Z,99520.50
2019-06-26T21:10:40.771Z,99519.64
2019-06-26T21:13:09.572Z,99516.58
2019-06-26T21:15:38.455Z,99515.20
2019-06-26T21:18:07.060Z,99507.20
2019-06-26T21:20:35.820Z,99500.11
2019-06-26T21:23:17.527Z,99504.97
2019-06-26T21:25:35.056Z,99495.70
2019-06-26T21:28:03.823Z,99500.75
2019-06-26T21:30:32.599Z,99494.13
2019-06-26T21:33:01.389Z,99496.23
2019-06-26T21:35:30.264Z,99495.76
2019-06-26T21:37:59.170Z,99500.42
2019-06-26T21:40:27.951Z,99502.27
2019-06-26T21:42:58.604Z,99501.38
2019-06-26T21:45:30.813Z,99502.48
2019-06-26T21:48:01.936Z,99496.47
2019-06-26T21:50:31.025Z,99489.38
2019-06-26T21:53:00.172Z,99482.84
2019-06-26T21:55:34.713Z,99483.34
2019-06-26T21:58:04.968Z,99486.88
2019-06-26T22:00:36.813Z,99479.45
2019-06-26T22:03:06.105Z,99483.42
2019-06-26T22:05:38.229Z,99483.28
2019-06-26T22:08:07.604Z,99489.90
2019-06-26T22:10:38.517Z,99479.45
2019-06-26T22:13:07.511Z,99470.23
2019-06-26T22:15:37.948Z,99473.73
2019-06-26T22:18:07.063Z,99462.35
2019-06-26T22:20:37.642Z,99464.53
2019-06-26T22:23:09.588Z,99461.50
2019-06-26T22:25:50.324Z,99455.84
2019-06-26T22:28:13.288Z,99456.75
2019-06-26T22:30:42.352Z,99449.75
2019-06-26T22:33:13.384Z,99443.59
2019-06-26T22:35:43.200Z,99442.71
2019-06-26T22:38:13.571Z,99438.80
2019-06-26T22:40:43.709Z,99434.50
2019-06-26T22:43:14.529Z,99433.12
2019-06-26T22:45:45.233Z,99430.42
2019-06-26T22:48:17.051Z,99427.72
2019-06-26T22:50:47.504Z,99422.42
2019-06-26T22:53:16.428Z,99427.72
2019-06-26T22:55:45.461Z,99423.85
2019-06-26T22:58:16.585Z,99423.28
2019-06-26T23:00:47.820Z,99426.03
2019-06-26T23:03:18.480Z,99423.33
2019-06-26T23:05:47.526Z,99425.07
2019-06-26T23:08:16.551Z,99411.94
2019-06-26T23:10:45.816Z,99411.89
2019-06-26T23:13:19.859Z,99407.45
2019-06-26T23:15:50.561Z,99407.12
2019-06-26T23:18:19.546Z,99400.03
2019-06-26T23:20:50.695Z,99397.86
2019-06-26T23:23:19.951Z,99391.23
2019-06-26T23:25:54.481Z,99396.86
2019-06-26T23:28:23.384Z,99385.42
2019-06-26T23:30:54.175Z,99387.70
2019-06-26T23:33:23.234Z,99385.00
2019-06-26T23:35:54.101Z,99377.17
2019-06-26T23:38:23.216Z,99378.80
2019-06-26T23:40:54.155Z,99370.02
2019-06-26T23:43:23.263Z,99373.73
2019-06-26T23:45:54.258Z,99368.75
2019-06-26T23:48:26.562Z,99361.27
2019-06-26T23:50:56.447Z,99359.06
2019-06-26T23:53:25.310Z,99363.98
2019-06-26T23:55:55.869Z,99366.56
2019-06-26T23:58:24.798Z,99364.83
